createdAt,value
2018-04-04T00:01:11.365Z,21.70
2018-04-04T00:03:39.627Z,21.70
2018-04-04T00:06:07.212Z,21.60
2018-04-04T00:08:35.491Z,21.70
2018-04-04T00:11:03.747Z,21.70
2018-04-04T00:13:31.226Z,21.80
2018-04-04T00:15:59.591Z,21.70
2018-04-04T00:18:27.847Z,21.80
2018-04-04T00:20:55.371Z,21.80
2018-04-04T00:23:22.980Z,21.80
2018-04-04T00:25:50.527Z,21.70
2018-04-04T00:28:18.013Z,21.80
2018-04-04T00:30:46.251Z,21.70
2018-04-04T00:33:13.806Z,21.70
2018-04-04T00:35:41.282Z,21.70
2018-04-04T00:38:08.794Z,21.60
2018-04-04T00:40:36.291Z,21.60
2018-04-04T00:43:03.789Z,21.60
2018-04-04T00:45:32.019Z,21.50
2018-04-04T00:47:59.529Z,21.50
2018-04-04T00:50:27.025Z,21.60
2018-04-04T00:52:54.627Z,21.50
2018-04-04T00:55:22.861Z,21.50
2018-04-04T00:57:50.367Z,21.50
2018-04-04T01:00:18.643Z,21.50
2018-04-04T01:02:46.901Z,21.50
2018-04-04T01:05:14.363Z,21.50
2018-04-04T01:07:42.627Z,21.70
2018-04-04T01:10:11.629Z,21.80
2018-04-04T01:12:39.902Z,21.80
2018-04-04T01:15:08.932Z,21.70
2018-04-04T01:17:36.439Z,21.70
2018-04-04T01:20:03.913Z,21.60
2018-04-04T01:22:32.435Z,21.60
2018-04-04T01:24:59.943Z,21.50
2018-04-04T01:27:28.201Z,21.50
2018-04-04T01:29:55.717Z,21.50
2018-04-04T01:32:23.213Z,21.60
2018-04-04T01:34:50.735Z,21.50
2018-04-04T01:37:18.215Z,21.50
2018-04-04T01:39:45.735Z,21.50
2018-04-04T01:42:13.979Z,21.50
2018-04-04T01:44:42.992Z,21.40
2018-04-04T01:47:11.241Z,21.60
2018-04-04T01:49:38.724Z,21.60
2018-04-04T01:52:07.009Z,21.50
2018-04-04T01:54:35.285Z,21.50
2018-04-04T01:57:03.584Z,21.50
2018-04-04T01:59:31.129Z,21.40
2018-04-04T02:01:59.427Z,21.50
2018-04-04T02:04:26.952Z,21.40
2018-04-04T02:06:55.239Z,21.50
2018-04-04T02:09:23.525Z,21.50
2018-04-04T02:11:51.034Z,21.50
2018-04-04T02:14:18.521Z,21.50
2018-04-04T02:16:46.806Z,21.40
2018-04-04T02:19:15.071Z,21.40
2018-04-04T02:21:43.354Z,21.40
2018-04-04T02:24:11.607Z,21.40
2018-04-04T02:26:39.861Z,21.40
2018-04-04T02:29:07.362Z,21.40
2018-04-04T02:31:35.623Z,21.50
2018-04-04T02:34:03.120Z,21.40
2018-04-04T02:36:30.628Z,21.40
2018-04-04T02:38:58.091Z,21.40
2018-04-04T02:41:25.613Z,21.40
2018-04-04T02:43:53.108Z,21.40
2018-04-04T02:46:21.340Z,21.50
2018-04-04T02:48:48.847Z,21.40
2018-04-04T02:51:16.323Z,21.50
2018-04-04T02:53:44.597Z,21.50
2018-04-04T02:56:12.838Z,21.50
2018-04-04T02:58:40.346Z,21.40
2018-04-04T03:01:07.888Z,21.40
2018-04-04T03:03:36.133Z,21.40
2018-04-04T03:06:03.643Z,21.40
2018-04-04T03:08:31.110Z,21.50
2018-04-04T03:10:58.638Z,21.50
2018-04-04T03:13:26.898Z,21.50
2018-04-04T03:15:54.468Z,21.50
2018-04-04T03:18:21.943Z,21.60
2018-04-04T03:20:49.436Z,21.60
2018-04-04T03:23:16.956Z,21.50
2018-04-04T03:25:45.218Z,21.40
2018-04-04T03:28:13.511Z,21.40
2018-04-04T03:30:41.790Z,21.30
2018-04-04T03:33:09.258Z,21.30
2018-04-04T03:35:36.778Z,21.30
2018-04-04T03:38:04.264Z,21.30
2018-04-04T03:40:31.808Z,21.30
2018-04-04T03:43:00.106Z,21.20
2018-04-04T03:45:27.598Z,21.20
2018-04-04T03:47:55.155Z,21.30
2018-04-04T03:50:22.674Z,21.30
2018-04-04T03:52:50.921Z,21.20
2018-04-04T03:55:19.928Z,21.20
2018-04-04T03:57:47.448Z,21.20
2018-04-04T04:00:14.972Z,21.20
2018-04-04T04:02:42.520Z,21.20
2018-04-04T04:05:10.898Z,21.20
2018-04-04T04:07:38.379Z,21.20
2018-04-04T04:10:05.925Z,21.20
2018-04-04T04:12:34.193Z,21.20
2018-04-04T04:15:01.708Z,21.20
2018-04-04T04:17:29.202Z,21.20
2018-04-04T04:19:57.470Z,21.30
2018-04-04T04:22:25.734Z,21.30
2018-04-04T04:24:53.250Z,21.30
2018-04-04T04:27:20.737Z,21.30
2018-04-04T04:29:48.312Z,21.30
2018-04-04T04:32:15.774Z,21.20
2018-04-04T04:34:44.041Z,21.20
2018-04-04T04:37:11.706Z,21.20
2018-04-04T04:39:39.252Z,21.30
2018-04-04T04:42:06.868Z,21.30
2018-04-04T04:44:34.336Z,21.30
2018-04-04T04:47:01.824Z,21.30
2018-04-04T04:49:29.329Z,21.30
2018-04-04T04:51:56.821Z,21.30
2018-04-04T04:54:24.333Z,21.30
2018-04-04T04:56:52.595Z,21.30
2018-04-04T04:59:20.890Z,21.20
2018-04-04T05:01:49.180Z,21.20
2018-04-04T05:04:16.672Z,21.10
2018-04-04T05:06:44.176Z,21.10
2018-04-04T05:09:12.404Z,21.00
2018-04-04T05:11:39.938Z,21.00
2018-04-04T05:14:07.393Z,21.00
2018-04-04T05:16:34.932Z,21.00
2018-04-04T05:19:03.192Z,21.00
2018-04-04T05:21:31.450Z,21.00
2018-04-04T05:23:58.992Z,21.00
2018-04-04T05:26:26.458Z,21.00
2018-04-04T05:28:53.940Z,21.00
2018-04-04T05:31:21.514Z,21.00
2018-04-04T05:33:49.772Z,21.10
2018-04-04T05:36:17.344Z,21.10
2018-04-04T05:38:45.594Z,21.20
2018-04-04T05:41:13.108Z,21.10
2018-04-04T05:43:40.610Z,21.20
2018-04-04T05:46:08.105Z,21.30
2018-04-04T05:48:36.382Z,21.50
2018-04-04T05:51:04.678Z,21.70
2018-04-04T05:53:32.233Z,21.70
2018-04-04T05:55:59.720Z,21.60
2018-04-04T05:58:27.229Z,21.70
2018-04-04T06:00:55.478Z,21.70
2018-04-04T06:03:22.984Z,21.60
2018-04-04T06:05:50.512Z,21.40
2018-04-04T06:08:18.801Z,21.30
2018-04-04T06:10:47.056Z,21.00
2018-04-04T06:13:14.541Z,21.00
2018-04-04T06:15:42.056Z,21.00
2018-04-04T06:18:10.326Z,21.20
2018-04-04T06:20:37.806Z,21.10
2018-04-04T06:23:06.132Z,21.20
2018-04-04T06:25:33.687Z,21.20
2018-04-04T06:28:01.214Z,21.20
2018-04-04T06:30:29.489Z,21.60
2018-04-04T06:32:57.747Z,21.70
2018-04-04T06:35:25.547Z,21.70
2018-04-04T06:37:53.043Z,21.90
2018-04-04T06:40:20.554Z,22.00
2018-04-04T06:42:48.804Z,22.10
2018-04-04T06:45:16.303Z,22.10
2018-04-04T06:47:43.820Z,22.20
2018-04-04T06:50:11.313Z,22.20
2018-04-04T06:52:38.840Z,22.30
2018-04-04T06:55:06.311Z,22.30
2018-04-04T06:57:34.695Z,22.40
2018-04-04T07:00:02.963Z,22.40
2018-04-04T07:02:31.281Z,22.40
2018-04-04T07:04:58.809Z,22.40
2018-04-04T07:07:27.097Z,22.50
2018-04-04T07:09:55.475Z,22.50
2018-04-04T07:12:23.055Z,22.50
2018-04-04T07:14:50.582Z,22.50
2018-04-04T07:17:18.849Z,22.50
2018-04-04T07:19:47.147Z,22.50
2018-04-04T07:22:14.629Z,22.50
2018-04-04T07:24:42.125Z,22.50
2018-04-04T07:27:09.599Z,22.50
2018-04-04T07:29:37.899Z,22.60
2018-04-04T07:32:05.365Z,22.60
2018-04-04T07:34:32.865Z,22.60
2018-04-04T07:37:00.353Z,22.60
2018-04-04T07:39:28.664Z,22.60
2018-04-04T07:41:56.186Z,22.60
2018-04-04T07:44:24.451Z,22.60
2018-04-04T07:46:51.969Z,22.60
2018-04-04T07:49:19.487Z,22.60
2018-04-04T07:51:46.999Z,22.60
2018-04-04T07:54:14.513Z,22.60
2018-04-04T07:56:42.002Z,22.60
2018-04-04T07:59:09.651Z,22.60
2018-04-04T08:01:37.129Z,22.70
2018-04-04T08:04:04.633Z,22.70
2018-04-04T08:06:32.869Z,22.70
2018-04-04T08:09:00.379Z,22.60
2018-04-04T08:11:28.655Z,22.70
2018-04-04T08:13:56.915Z,22.70
2018-04-04T08:16:24.377Z,22.70
2018-04-04T08:18:52.637Z,22.70
2018-04-04T08:21:20.223Z,22.70
2018-04-04T08:23:47.714Z,22.70
2018-04-04T08:26:15.228Z,22.70
2018-04-04T08:28:43.500Z,22.70
2018-04-04T08:31:11.785Z,22.70
2018-04-04T08:33:40.022Z,22.70
2018-04-04T08:36:07.507Z,22.70
2018-04-04T08:38:34.978Z,22.70
2018-04-04T08:41:03.278Z,22.80
2018-04-04T08:43:30.746Z,22.70
2018-04-04T08:45:58.271Z,22.70
2018-04-04T08:48:26.539Z,22.80
2018-04-04T08:50:54.780Z,22.80
2018-04-04T08:53:22.289Z,22.70
2018-04-04T08:55:49.752Z,22.80
2018-04-04T08:58:17.244Z,22.80
2018-04-04T09:00:45.016Z,22.80
2018-04-04T09:03:12.639Z,22.80
2018-04-04T09:05:40.111Z,22.80
2018-04-04T09:08:07.601Z,22.80
2018-04-04T09:10:35.092Z,22.80
2018-04-04T09:13:03.350Z,22.80
2018-04-04T09:15:30.944Z,22.80
2018-04-04T09:17:58.471Z,22.90
2018-04-04T09:20:25.977Z,22.90
2018-04-04T09:22:53.445Z,22.90
2018-04-04T09:25:21.082Z,22.90
2018-04-04T09:27:48.585Z,22.90
2018-04-04T09:30:16.096Z,22.90
2018-04-04T09:32:43.597Z,23.40
2018-04-04T09:35:11.092Z,22.90
2018-04-04T09:37:39.493Z,22.90
2018-04-04T09:40:06.981Z,22.90
2018-04-04T09:42:34.500Z,23.00
2018-04-04T09:45:02.768Z,23.00
2018-04-04T09:47:31.140Z,23.00
2018-04-04T09:49:59.400Z,23.00
2018-04-04T09:52:26.924Z,23.00
2018-04-04T09:54:54.428Z,23.00
2018-04-04T09:57:21.916Z,23.00
2018-04-04T09:59:49.456Z,23.00
2018-04-04T10:02:23.469Z,23.00
2018-04-04T10:04:51.729Z,23.00
2018-04-04T10:07:19.249Z,23.00
2018-04-04T10:09:46.736Z,23.00
2018-04-04T10:12:14.254Z,22.90
2018-04-04T10:14:41.724Z,22.90
2018-04-04T10:17:09.322Z,22.90
2018-04-04T10:19:38.229Z,22.90
2018-04-04T10:22:05.098Z,22.90
2018-04-04T10:24:32.586Z,22.90
2018-04-04T10:27:00.100Z,22.90
2018-04-04T10:29:27.594Z,22.90
2018-04-04T10:31:55.110Z,22.90
2018-04-04T10:34:23.473Z,22.90
2018-04-04T10:36:51.748Z,22.90
2018-04-04T10:39:20.014Z,22.90
2018-04-04T10:41:47.479Z,22.90
2018-04-04T10:44:15.748Z,22.90
2018-04-04T10:46:44.743Z,22.90
2018-04-04T10:49:12.229Z,22.90
2018-04-04T10:51:39.724Z,22.90
2018-04-04T10:54:07.236Z,22.90
2018-04-04T10:56:35.529Z,22.90
2018-04-04T10:59:03.023Z,22.90
2018-04-04T11:01:30.561Z,22.90
2018-04-04T11:03:58.046Z,22.90
2018-04-04T11:06:25.632Z,22.90
2018-04-04T11:08:53.880Z,23.00
2018-04-04T11:11:21.386Z,23.00
2018-04-04T11:13:48.882Z,23.00
2018-04-04T11:16:16.394Z,23.00
2018-04-04T11:18:44.704Z,23.00
2018-04-04T11:21:12.187Z,23.00
2018-04-04T11:23:39.680Z,23.00
2018-04-04T11:26:07.946Z,23.00
2018-04-04T11:28:35.524Z,23.00
2018-04-04T11:31:03.790Z,23.10
2018-04-04T11:33:32.080Z,23.10
2018-04-04T11:36:00.362Z,23.10
2018-04-04T11:38:27.940Z,23.10
2018-04-04T11:40:55.498Z,23.10
2018-04-04T11:43:23.004Z,23.10
2018-04-04T11:45:50.494Z,23.10
2018-04-04T11:48:18.876Z,23.10
2018-04-04T11:50:46.366Z,23.10
2018-04-04T11:53:13.907Z,23.10
2018-04-04T11:55:41.408Z,23.10
2018-04-04T11:58:08.887Z,23.10
2018-04-04T12:00:36.415Z,23.10
2018-04-04T12:03:03.914Z,23.10
2018-04-04T12:05:32.184Z,23.10
2018-04-04T12:08:00.475Z,23.00
2018-04-04T12:10:28.758Z,23.10
2018-04-04T12:12:56.274Z,23.00
2018-04-04T12:15:23.776Z,23.00
2018-04-04T12:17:51.334Z,23.00
2018-04-04T12:20:18.820Z,23.00
2018-04-04T12:22:46.345Z,23.00
2018-04-04T12:25:14.613Z,23.00
2018-04-04T12:27:42.997Z,23.00
2018-04-04T12:30:11.244Z,23.00
2018-04-04T12:32:38.832Z,23.00
2018-04-04T12:35:06.302Z,23.00
2018-04-04T12:37:33.840Z,23.00
2018-04-04T12:40:02.105Z,23.00
2018-04-04T12:42:29.605Z,23.00
2018-04-04T12:44:57.148Z,23.00
2018-04-04T12:47:25.399Z,23.00
2018-04-04T12:49:52.925Z,23.00
2018-04-04T12:52:20.454Z,23.00
2018-04-04T12:54:47.998Z,23.00
2018-04-04T12:57:15.531Z,23.00
2018-04-04T12:59:43.021Z,23.00
2018-04-04T13:02:10.529Z,23.00
2018-04-04T13:04:42.124Z,23.00
2018-04-04T13:07:09.642Z,23.00
2018-04-04T13:09:37.135Z,23.00
2018-04-04T13:12:05.395Z,23.10
2018-04-04T13:14:32.962Z,23.00
2018-04-04T13:17:01.209Z,23.00
2018-04-04T13:19:28.737Z,23.00
2018-04-04T13:21:56.237Z,23.00
2018-04-04T13:24:23.740Z,23.10
2018-04-04T13:26:51.225Z,23.00
2018-04-04T13:29:18.759Z,23.10
2018-04-04T13:31:46.263Z,23.10
2018-04-04T13:34:13.794Z,23.00
2018-04-04T13:36:41.288Z,23.10
2018-04-04T13:39:08.862Z,23.10
2018-04-04T13:41:37.270Z,23.10
2018-04-04T13:44:04.785Z,23.10
2018-04-04T13:46:32.267Z,23.10
2018-04-04T13:49:00.536Z,23.10
2018-04-04T13:51:28.767Z,23.10
2018-04-04T13:53:56.373Z,23.10
2018-04-04T13:56:24.646Z,23.10
2018-04-04T13:58:52.319Z,23.10
2018-04-04T14:01:20.574Z,23.10
2018-04-04T14:03:48.147Z,23.10
2018-04-04T14:06:15.635Z,23.10
2018-04-04T14:08:43.105Z,23.20
2018-04-04T14:11:10.627Z,23.20
2018-04-04T14:13:38.862Z,23.20
2018-04-04T14:16:06.458Z,23.20
2018-04-04T14:18:34.853Z,23.20
2018-04-04T14:21:03.142Z,23.30
2018-04-04T14:23:30.678Z,23.20
2018-04-04T14:25:58.967Z,23.30
2018-04-04T14:28:26.461Z,23.30
2018-04-04T14:30:53.988Z,23.30
2018-04-04T14:33:21.559Z,23.30
2018-04-04T14:35:49.035Z,23.30
2018-04-04T14:38:16.552Z,23.40
2018-04-04T14:40:44.815Z,23.30
2018-04-04T14:43:13.079Z,23.30
2018-04-04T14:45:41.383Z,23.40
2018-04-04T14:48:09.639Z,23.30
2018-04-04T14:50:37.163Z,23.30
2018-04-04T14:53:04.642Z,23.30
2018-04-04T14:55:32.152Z,23.30
2018-04-04T14:57:59.622Z,23.40
2018-04-04T15:00:27.151Z,23.30
2018-04-04T15:02:55.403Z,23.30
2018-04-04T15:05:23.698Z,23.30
2018-04-04T15:07:52.000Z,23.30
2018-04-04T15:10:19.564Z,23.30
2018-04-04T15:12:47.073Z,23.30
2018-04-04T15:15:14.655Z,23.30
2018-04-04T15:17:42.892Z,23.20
2018-04-04T15:20:10.401Z,23.20
2018-04-04T15:22:37.892Z,23.20
2018-04-04T15:25:05.388Z,23.20
2018-04-04T15:27:33.682Z,23.30
2018-04-04T15:30:01.196Z,23.20
2018-04-04T15:32:28.693Z,23.30
2018-04-04T15:34:56.972Z,23.40
2018-04-04T15:37:25.272Z,23.40
2018-04-04T15:39:52.768Z,23.40
2018-04-04T15:44:46.295Z,23.30
2018-04-04T15:47:14.658Z,23.30
2018-04-04T15:49:42.915Z,23.40
2018-04-04T15:52:12.520Z,23.40
2018-04-04T15:54:40.836Z,23.40
2018-04-04T15:57:08.417Z,23.40
2018-04-04T15:59:35.921Z,23.40
2018-04-04T16:02:09.120Z,23.40
2018-04-04T16:04:36.616Z,23.40
2018-04-04T16:07:04.160Z,23.40
2018-04-04T16:09:31.734Z,23.40
2018-04-04T16:11:59.270Z,23.40
2018-04-04T16:14:27.526Z,23.40
2018-04-04T16:16:55.034Z,23.30
2018-04-04T16:19:22.571Z,23.30
2018-04-04T16:21:50.132Z,23.30
2018-04-04T16:24:18.499Z,23.30
2018-04-04T16:26:45.988Z,23.30
2018-04-04T16:29:13.512Z,23.30
2018-04-04T16:31:41.759Z,23.30
2018-04-04T16:34:09.281Z,23.30
2018-04-04T16:36:36.839Z,23.30
2018-04-04T16:39:04.336Z,23.30
2018-04-04T16:41:31.856Z,23.30
2018-04-04T16:43:59.397Z,23.30
2018-04-04T16:46:26.918Z,23.30
2018-04-04T16:48:55.171Z,23.20
2018-04-04T16:51:22.728Z,23.20
2018-04-04T16:53:50.234Z,23.20
2018-04-04T16:56:18.550Z,23.20
2018-04-04T16:58:46.040Z,23.20
2018-04-04T17:01:13.615Z,23.20
2018-04-04T17:03:41.890Z,23.20
2018-04-04T17:06:09.406Z,23.20
2018-04-04T17:08:36.950Z,23.20
2018-04-04T17:11:04.446Z,23.10
2018-04-04T17:13:31.958Z,23.20
2018-04-04T17:15:59.427Z,23.10
2018-04-04T17:18:26.935Z,23.10
2018-04-04T17:20:54.452Z,23.10
2018-04-04T17:23:21.937Z,23.10
2018-04-04T17:25:49.457Z,23.10
2018-04-04T17:28:16.925Z,23.10
2018-04-04T17:30:44.420Z,23.10
2018-04-04T17:33:11.943Z,23.10
2018-04-04T17:35:39.470Z,23.10
2018-04-04T17:38:07.704Z,23.10
2018-04-04T17:40:35.203Z,23.10
2018-04-04T17:43:03.465Z,23.10
2018-04-04T17:45:31.049Z,23.10
2018-04-04T17:47:58.628Z,23.10
2018-04-04T17:50:26.127Z,23.10
2018-04-04T17:52:56.249Z,23.10
2018-04-04T17:55:23.726Z,23.10
2018-04-04T17:57:52.044Z,23.10
2018-04-04T18:00:19.568Z,23.10
2018-04-04T18:02:47.854Z,23.10
2018-04-04T18:05:15.372Z,23.10
2018-04-04T18:07:42.977Z,23.10
2018-04-04T18:10:10.493Z,23.10
2018-04-04T18:12:38.008Z,23.10
2018-04-04T18:15:06.278Z,23.10
2018-04-04T18:17:33.789Z,23.10
2018-04-04T18:20:01.291Z,23.20
2018-04-04T18:22:28.819Z,23.20
2018-04-04T18:24:56.307Z,23.20
2018-04-04T18:27:23.831Z,23.20
2018-04-04T18:29:51.318Z,23.20
2018-04-04T18:32:18.836Z,23.20
2018-04-04T18:34:46.845Z,23.20
2018-04-04T18:37:14.338Z,23.20
2018-04-04T18:39:41.885Z,23.20
2018-04-04T18:42:09.383Z,23.20
2018-04-04T18:44:36.862Z,23.20
2018-04-04T18:47:05.214Z,23.20
2018-04-04T18:49:32.788Z,23.20
2018-04-04T18:52:00.269Z,23.20
2018-04-04T18:54:28.559Z,23.20
2018-04-04T18:56:56.093Z,23.20
2018-04-04T18:59:24.398Z,23.20
2018-04-04T19:01:51.925Z,23.20
2018-04-04T19:04:20.191Z,23.30
2018-04-04T19:06:47.730Z,23.20
2018-04-04T19:09:15.207Z,23.30
2018-04-04T19:11:42.711Z,23.20
2018-04-04T19:14:10.230Z,23.30
2018-04-04T19:16:37.747Z,23.30
2018-04-04T19:19:05.351Z,23.20
2018-04-04T19:21:33.059Z,23.30
2018-04-04T19:24:00.593Z,23.20
2018-04-04T19:26:28.850Z,23.20
2018-04-04T19:28:57.145Z,23.20
2018-04-04T19:31:24.617Z,23.20
2018-04-04T19:33:52.160Z,23.20
2018-04-04T19:36:19.637Z,23.20
2018-04-04T19:38:47.168Z,23.20
2018-04-04T19:41:15.428Z,23.20
2018-04-04T19:43:42.897Z,23.20
2018-04-04T19:46:11.149Z,23.20
2018-04-04T19:48:38.745Z,23.20
2018-04-04T19:51:07.003Z,23.30
2018-04-04T19:53:35.277Z,23.20
2018-04-04T19:56:02.759Z,23.20
2018-04-04T19:58:30.310Z,23.20
2018-04-04T20:00:58.569Z,23.20
2018-04-04T20:03:26.170Z,23.20
2018-04-04T20:05:53.671Z,23.30
2018-04-04T20:08:22.705Z,23.30
2018-04-04T20:10:50.322Z,23.20
2018-04-04T20:13:17.900Z,23.30
2018-04-04T20:15:45.481Z,23.30
2018-04-04T20:18:13.003Z,23.30
2018-04-04T20:20:40.487Z,23.30
2018-04-04T20:23:08.789Z,23.20
2018-04-04T20:25:36.263Z,23.20
2018-04-04T20:28:03.788Z,23.00
2018-04-04T20:30:32.085Z,22.30
2018-04-04T20:33:00.338Z,22.10
2018-04-04T20:35:28.593Z,21.80
2018-04-04T20:37:56.116Z,21.80
2018-04-04T20:40:23.586Z,21.50
2018-04-04T20:42:51.065Z,21.40
2018-04-04T20:45:18.570Z,21.40
2018-04-04T20:47:46.075Z,21.50
2018-04-04T20:50:13.886Z,21.60
2018-04-04T20:52:41.357Z,21.70
2018-04-04T20:55:08.881Z,21.50
2018-04-04T20:57:37.156Z,21.60
2018-04-04T21:00:05.446Z,21.70
2018-04-04T21:02:33.727Z,21.90
2018-04-04T21:05:01.282Z,21.90
2018-04-04T21:07:28.794Z,21.90
2018-04-04T21:09:56.285Z,21.80
2018-04-04T21:12:24.557Z,21.70
2018-04-04T21:14:52.823Z,21.70
2018-04-04T21:17:21.183Z,21.70
2018-04-04T21:19:48.709Z,21.70
2018-04-04T21:22:16.256Z,21.90
2018-04-04T21:24:43.802Z,21.90
2018-04-04T21:27:12.059Z,21.70
2018-04-04T21:29:39.625Z,21.70
2018-04-04T21:32:07.918Z,21.90
2018-04-04T21:34:36.170Z,21.80
2018-04-04T21:37:03.770Z,21.80
2018-04-04T21:39:31.292Z,21.50
2018-04-04T21:41:58.775Z,21.40
2018-04-04T21:44:26.286Z,21.40
2018-04-04T21:46:53.775Z,21.30
2018-04-04T21:49:22.050Z,21.30
2018-04-04T21:51:50.291Z,21.50
2018-04-04T21:54:17.796Z,21.50
2018-04-04T21:56:45.316Z,21.60
2018-04-04T21:59:12.797Z,21.60
2018-04-04T22:01:41.062Z,21.60
2018-04-04T22:04:08.535Z,21.60
2018-04-04T22:06:36.836Z,21.50
2018-04-04T22:09:07.160Z,21.50
2018-04-04T22:11:34.684Z,21.50
2018-04-04T22:14:02.984Z,21.20
2018-04-04T22:16:30.473Z,21.20
2018-04-04T22:18:57.971Z,21.20
2018-04-04T22:21:25.447Z,21.30
2018-04-04T22:23:53.771Z,21.40
2018-04-04T22:26:21.394Z,21.40
2018-04-04T22:28:49.690Z,21.20
2018-04-04T22:31:17.190Z,21.20
2018-04-04T22:33:44.687Z,21.30
2018-04-04T22:36:12.240Z,21.10
2018-04-04T22:38:40.514Z,21.40
2018-04-04T22:41:08.772Z,21.60
2018-04-04T22:43:36.332Z,21.60
2018-04-04T22:46:03.802Z,21.90
2018-04-04T22:48:32.094Z,22.20
2018-04-04T22:50:59.630Z,22.20
2018-04-04T22:53:27.134Z,22.30
2018-04-04T22:55:54.630Z,22.40
2018-04-04T22:58:22.121Z,22.40
2018-04-04T23:00:50.516Z,22.50
2018-04-04T23:03:17.988Z,22.50
2018-04-04T23:05:45.467Z,22.50
2018-04-04T23:08:12.962Z,22.50
2018-04-04T23:10:41.208Z,22.60
2018-04-04T23:13:08.714Z,22.60
2018-04-04T23:15:36.218Z,22.60
2018-04-04T23:18:03.736Z,22.60
2018-04-04T23:20:31.331Z,22.60
2018-04-04T23:22:58.758Z,22.60
2018-04-04T23:25:26.250Z,22.60
2018-04-04T23:27:53.834Z,22.60
2018-04-04T23:30:21.391Z,22.70
2018-04-04T23:32:48.884Z,22.60
2018-04-04T23:35:16.402Z,22.70
2018-04-04T23:37:43.872Z,22.60
2018-04-04T23:40:12.106Z,22.70
2018-04-04T23:42:39.596Z,22.70
2018-04-04T23:45:08.606Z,22.70
2018-04-04T23:47:36.898Z,22.70
2018-04-04T23:50:04.389Z,22.70
2018-04-04T23:52:31.895Z,22.70
2018-04-04T23:55:00.166Z,22.70
2018-04-04T23:57:27.687Z,22.70
2018-04-04T23:59:55.302Z,22.70
